createdAt,value
2022-08-09T00:01:05.005Z,4.03
2022-08-09T00:04:05.900Z,3.62
2022-08-09T00:06:23.697Z,3.52
2022-08-09T00:08:50.166Z,3.61
2022-08-09T00:11:25.072Z,3.70
2022-08-09T00:13:54.196Z,3.79
2022-08-09T00:16:26.383Z,3.67
2022-08-09T00:19:02.974Z,3.87
2022-08-09T00:21:35.688Z,3.78
2022-08-09T00:24:02.115Z,3.73
2022-08-09T00:26:32.688Z,3.73
2022-08-09T00:28:59.873Z,4.14
2022-08-09T00:31:56.762Z,3.79
2022-08-09T00:34:12.808Z,3.70
2022-08-09T00:36:41.654Z,3.64
2022-08-09T00:39:16.750Z,3.63
2022-08-09T00:44:09.986Z,3.74
2022-08-09T00:44:30.366Z,3.88
2022-08-09T00:47:04.786Z,3.96
2022-08-09T00:49:32.118Z,3.71
2022-08-09T00:52:05.137Z,4.03
2022-08-09T00:54:35.371Z,3.93
2022-08-09T00:57:02.804Z,3.79
2022-08-09T00:59:41.345Z,3.59
2022-08-09T01:02:12.567Z,4.10
2022-08-09T01:04:39.522Z,3.95
2022-08-09T01:07:13.962Z,3.80
2022-08-09T01:09:40.503Z,3.89
2022-08-09T01:12:08.556Z,3.98
2022-08-09T01:14:37.856Z,4.02
2022-08-09T01:17:04.699Z,3.58
2022-08-09T01:19:42.769Z,3.96
2022-08-09T01:22:18.302Z,3.79
2022-08-09T01:24:52.152Z,3.85
2022-08-09T01:27:18.760Z,3.99
2022-08-09T01:29:55.090Z,3.71
2022-08-09T01:32:31.247Z,3.81
2022-08-09T01:34:59.757Z,3.96
2022-08-09T01:37:43.156Z,3.91
2022-08-09T01:40:23.208Z,4.12
2022-08-09T01:42:55.062Z,3.78
2022-08-09T01:45:22.409Z,3.93
2022-08-09T01:47:49.715Z,4.19
2022-08-09T01:50:16.284Z,4.23
2022-08-09T01:52:43.606Z,4.04
2022-08-09T01:55:10.017Z,4.18
2022-08-09T01:57:40.387Z,4.41
2022-08-09T02:00:34.817Z,4.08
2022-08-09T02:02:58.774Z,4.00
2022-08-09T02:05:38.126Z,3.96
2022-08-09T02:08:39.387Z,4.09
2022-08-09T02:10:57.957Z,4.20
2022-08-09T02:13:37.680Z,4.46
2022-08-09T02:16:06.906Z,3.91
2022-08-09T02:18:35.150Z,4.25
2022-08-09T02:21:01.549Z,4.24
2022-08-09T02:23:27.955Z,4.10
2022-08-09T02:25:58.526Z,3.96
2022-08-09T02:28:26.484Z,3.94
2022-08-09T02:30:53.794Z,4.03
2022-08-09T02:33:20.501Z,4.32
2022-08-09T02:36:03.350Z,4.00
2022-08-09T02:38:30.651Z,4.26
2022-08-09T02:40:57.142Z,4.22
2022-08-09T02:43:23.608Z,4.24
2022-08-09T02:45:55.159Z,3.92
2022-08-09T02:48:30.726Z,4.14
2022-08-09T02:50:57.672Z,4.32
2022-08-09T02:53:25.997Z,4.48
2022-08-09T02:55:58.642Z,4.37
2022-08-09T02:58:35.285Z,4.41
2022-08-09T03:01:04.367Z,4.25
2022-08-09T03:03:37.231Z,4.09
2022-08-09T03:06:19.089Z,4.44
2022-08-09T03:08:47.980Z,4.21
2022-08-09T03:11:15.584Z,4.12
2022-08-09T03:14:02.002Z,4.49
2022-08-09T03:16:28.442Z,4.19
2022-08-09T03:18:55.707Z,4.35
2022-08-09T03:21:25.805Z,4.55
2022-08-09T03:24:04.003Z,4.62
2022-08-09T03:26:32.093Z,4.60
2022-08-09T03:28:58.654Z,4.21
2022-08-09T03:31:25.147Z,4.43
2022-08-09T03:33:54.031Z,4.63
2022-08-09T03:36:21.480Z,4.43
2022-08-09T03:38:54.280Z,4.39
2022-08-09T03:41:20.682Z,4.50
2022-08-09T03:44:08.119Z,4.48
2022-08-09T03:46:35.433Z,4.57
2022-08-09T03:49:04.110Z,4.54
2022-08-09T03:51:55.588Z,4.46
2022-08-09T03:54:29.528Z,4.45
2022-08-09T03:56:57.835Z,4.54
2022-08-09T03:59:42.797Z,4.63
2022-08-09T04:02:10.950Z,4.58
2022-08-09T04:04:38.953Z,4.57
2022-08-09T04:07:05.505Z,4.30
2022-08-09T04:09:47.625Z,4.41
2022-08-09T04:12:30.430Z,4.58
2022-08-09T04:15:01.809Z,4.53
2022-08-09T04:17:37.714Z,4.59
2022-08-09T04:20:05.729Z,4.59
2022-08-09T04:22:33.917Z,4.45
2022-08-09T04:25:01.267Z,4.52
2022-08-09T04:27:28.984Z,4.40
2022-08-09T04:29:55.583Z,4.63
2022-08-09T04:32:31.398Z,4.75
2022-08-09T04:35:01.381Z,4.42
2022-08-09T04:37:45.406Z,4.69
2022-08-09T04:40:28.517Z,4.61
2022-08-09T04:42:59.366Z,4.62
2022-08-09T04:45:25.783Z,4.57
2022-08-09T04:48:01.041Z,4.39
2022-08-09T04:50:35.007Z,4.81
2022-08-09T04:53:04.613Z,4.45
2022-08-09T04:55:39.178Z,4.68
2022-08-09T04:58:17.518Z,4.53
2022-08-09T05:00:44.581Z,4.60
2022-08-09T05:03:30.153Z,4.70
2022-08-09T05:06:07.076Z,4.66
2022-08-09T05:08:34.002Z,4.82
2022-08-09T05:11:01.265Z,4.95
2022-08-09T05:13:29.052Z,4.44
2022-08-09T05:15:59.404Z,4.69
2022-08-09T05:18:37.642Z,4.61
2022-08-09T05:21:20.891Z,4.53
2022-08-09T05:23:53.989Z,4.41
2022-08-09T05:26:36.118Z,4.72
2022-08-09T05:29:17.713Z,4.62
2022-08-09T05:31:48.292Z,4.66
2022-08-09T05:34:22.438Z,4.88
2022-08-09T05:36:56.776Z,4.73
2022-08-09T05:39:29.324Z,4.58
2022-08-09T05:41:56.103Z,4.70
2022-08-09T05:44:29.120Z,4.53
2022-08-09T05:46:59.351Z,4.49
2022-08-09T05:50:23.463Z,4.56
2022-08-09T05:52:12.161Z,4.62
2022-08-09T05:54:39.727Z,4.58
2022-08-09T05:57:07.212Z,4.66
2022-08-09T05:59:39.289Z,4.88
2022-08-09T06:02:08.284Z,5.04
2022-08-09T06:04:36.422Z,5.14
2022-08-09T06:07:02.839Z,5.21
2022-08-09T06:09:53.953Z,4.87
2022-08-09T06:12:15.636Z,4.74
2022-08-09T06:14:43.630Z,4.68
2022-08-09T06:17:10.274Z,4.85
2022-08-09T06:19:36.945Z,4.70
2022-08-09T06:22:03.458Z,4.89
2022-08-09T06:24:29.906Z,4.88
2022-08-09T06:26:57.673Z,4.54
2022-08-09T06:29:24.396Z,5.02
2022-08-09T06:32:09.261Z,4.85
2022-08-09T06:34:39.596Z,5.14
2022-08-09T06:37:06.599Z,5.65
2022-08-09T06:39:48.275Z,6.40
2022-08-09T06:42:24.825Z,6.38
2022-08-09T06:44:55.022Z,7.12
2022-08-09T06:47:24.022Z,7.97
2022-08-09T06:50:14.912Z,8.41
2022-08-09T06:52:36.880Z,8.96
2022-08-09T06:55:09.970Z,9.38
2022-08-09T06:58:01.573Z,10.02
2022-08-09T07:00:52.617Z,10.18
2022-08-09T07:03:11.905Z,10.09
2022-08-09T07:05:58.087Z,9.51
2022-08-09T07:08:24.923Z,10.18
2022-08-09T07:10:51.357Z,10.58
2022-08-09T07:13:27.617Z,11.02
2022-08-09T07:16:43.270Z,10.64
2022-08-09T07:18:42.153Z,8.88
2022-08-09T07:21:09.421Z,9.46
2022-08-09T07:23:36.666Z,9.37
2022-08-09T07:26:22.774Z,10.23
2022-08-09T07:29:09.187Z,10.33
2022-08-09T07:31:38.439Z,9.64
2022-08-09T07:34:20.121Z,8.64
2022-08-09T07:36:47.616Z,8.27
2022-08-09T07:39:19.745Z,7.31
2022-08-09T07:41:47.085Z,7.31
2022-08-09T07:44:14.751Z,7.68
2022-08-09T07:46:41.568Z,7.24
2022-08-09T07:49:15.341Z,6.73
2022-08-09T07:52:04.275Z,6.81
2022-08-09T07:54:30.263Z,6.22
2022-08-09T07:56:58.813Z,5.96
2022-08-09T07:59:34.320Z,5.77
2022-08-09T08:02:16.629Z,5.67
2022-08-09T08:04:53.771Z,5.67
2022-08-09T08:08:42.765Z,5.57
2022-08-09T08:10:08.934Z,5.50
2022-08-09T08:12:42.490Z,5.65
2022-08-09T08:15:10.315Z,5.53
2022-08-09T08:17:53.009Z,5.20
2022-08-09T08:20:28.574Z,5.12
2022-08-09T08:23:01.294Z,5.46
2022-08-09T08:25:43.883Z,5.42
2022-08-09T08:28:14.476Z,5.41
2022-08-09T08:30:41.723Z,5.31
2022-08-09T08:33:11.999Z,5.49
2022-08-09T08:35:58.707Z,5.84
2022-08-09T08:38:26.360Z,5.51
2022-08-09T08:40:54.613Z,5.40
2022-08-09T08:43:21.035Z,5.56
2022-08-09T08:45:51.580Z,5.61
2022-08-09T08:48:29.233Z,5.63
2022-08-09T08:50:57.495Z,5.55
2022-08-09T08:53:25.149Z,5.37
2022-08-09T08:55:58.768Z,5.63
2022-08-09T08:58:27.359Z,5.36
2022-08-09T09:00:56.307Z,5.45
2022-08-09T09:03:33.050Z,5.41
2022-08-09T09:06:05.099Z,5.27
2022-08-09T09:08:32.071Z,5.53
2022-08-09T09:11:04.204Z,5.24
2022-08-09T09:13:34.608Z,5.04
2022-08-09T09:16:08.442Z,4.81
2022-08-09T09:18:36.175Z,4.93
2022-08-09T09:21:02.588Z,5.06
2022-08-09T09:23:37.591Z,4.99
2022-08-09T09:26:12.264Z,5.03
2022-08-09T09:29:04.419Z,4.68
2022-08-09T09:32:04.361Z,4.92
2022-08-09T09:34:11.865Z,5.11
2022-08-09T09:36:51.024Z,5.26
2022-08-09T09:39:20.343Z,4.86
2022-08-09T09:41:49.310Z,5.21
2022-08-09T09:44:25.784Z,5.07
2022-08-09T09:46:52.778Z,5.12
2022-08-09T09:49:31.642Z,4.81
2022-08-09T09:52:05.667Z,4.98
2022-08-09T09:54:43.198Z,5.09
2022-08-09T09:58:02.644Z,5.04
2022-08-09T10:00:01.701Z,4.85
2022-08-09T10:02:28.128Z,4.90
2022-08-09T10:04:55.140Z,4.77
2022-08-09T10:07:23.941Z,4.76
2022-08-09T10:09:54.919Z,4.98
2022-08-09T10:12:43.628Z,5.05
2022-08-09T10:15:17.173Z,4.55
2022-08-09T10:17:56.327Z,4.95
2022-08-09T10:20:26.922Z,4.85
2022-08-09T10:23:00.797Z,4.81
2022-08-09T10:25:34.511Z,4.70
2022-08-09T10:28:13.889Z,5.00
2022-08-09T10:32:20.945Z,4.92
2022-08-09T10:34:04.952Z,5.07
2022-08-09T10:36:14.790Z,4.76
2022-08-09T10:38:56.014Z,4.46
2022-08-09T10:41:26.251Z,4.82
2022-08-09T10:44:01.222Z,4.73
2022-08-09T10:46:28.694Z,4.74
2022-08-09T10:48:56.382Z,4.57
2022-08-09T10:51:29.436Z,4.62
2022-08-09T10:53:56.306Z,4.98
2022-08-09T10:56:23.312Z,4.91
2022-08-09T10:58:49.766Z,4.66
2022-08-09T11:03:06.793Z,4.68
2022-08-09T11:04:03.951Z,4.80
2022-08-09T11:06:32.704Z,4.97
2022-08-09T11:09:15.445Z,4.78
2022-08-09T11:11:43.623Z,5.07
2022-08-09T11:14:18.377Z,4.71
2022-08-09T11:16:55.152Z,4.61
2022-08-09T11:19:23.023Z,4.67
2022-08-09T11:22:19.038Z,4.35
2022-08-09T11:24:52.170Z,4.42
2022-08-09T11:27:25.486Z,4.35
2022-08-09T11:30:32.579Z,4.55
2022-08-09T11:32:51.896Z,4.06
2022-08-09T11:35:26.347Z,4.16
2022-08-09T11:38:01.454Z,3.95
2022-08-09T11:40:28.016Z,4.07
2022-08-09T11:42:56.082Z,3.84
2022-08-09T11:45:22.494Z,3.68
2022-08-09T11:47:48.902Z,3.96
2022-08-09T11:50:55.475Z,3.93
2022-08-09T11:53:57.686Z,3.89
2022-08-09T11:55:52.086Z,3.62
2022-08-09T11:58:19.690Z,3.64
2022-08-09T12:00:56.624Z,3.94
2022-08-09T12:03:55.590Z,3.87
2022-08-09T12:06:09.629Z,3.72
2022-08-09T12:08:37.242Z,3.57
2022-08-09T12:11:05.235Z,3.82
2022-08-09T12:14:07.572Z,3.66
2022-08-09T12:16:37.550Z,3.45
2022-08-09T12:19:05.080Z,3.55
2022-08-09T12:21:38.646Z,3.36
2022-08-09T12:24:08.885Z,3.46
2022-08-09T12:26:36.161Z,3.67
2022-08-09T12:29:29.687Z,3.36
2022-08-09T12:32:01.817Z,3.76
2022-08-09T12:34:29.758Z,3.32
2022-08-09T12:36:59.173Z,3.37
2022-08-09T12:39:42.626Z,3.49
2022-08-09T12:42:09.062Z,3.19
2022-08-09T12:44:37.438Z,3.36
2022-08-09T12:47:04.828Z,3.57
2022-08-09T12:49:31.377Z,3.26
2022-08-09T12:52:00.950Z,3.39
2022-08-09T12:54:29.701Z,3.14
2022-08-09T12:56:57.565Z,3.17
2022-08-09T12:59:23.966Z,3.26
2022-08-09T13:01:50.469Z,3.22
2022-08-09T13:04:37.072Z,3.25
2022-08-09T13:07:03.300Z,3.04
2022-08-09T13:09:30.540Z,3.15
2022-08-09T13:12:01.920Z,3.11
2022-08-09T13:14:42.383Z,2.91
2022-08-09T13:17:14.047Z,2.99
2022-08-09T13:20:07.706Z,2.93
2022-08-09T13:22:36.326Z,2.86
2022-08-09T13:25:05.494Z,3.03
2022-08-09T13:27:40.164Z,3.07
2022-08-09T13:30:51.315Z,3.03
2022-08-09T13:33:06.900Z,2.87
2022-08-09T13:36:24.666Z,3.19
2022-08-09T13:38:54.597Z,3.15
2022-08-09T13:41:46.064Z,2.88
2022-08-09T13:43:57.375Z,3.01
2022-08-09T13:47:16.570Z,3.03
2022-08-09T13:49:18.393Z,2.98
2022-08-09T13:52:00.648Z,3.03
2022-08-09T13:54:27.703Z,2.94
2022-08-09T13:56:56.837Z,3.19
2022-08-09T13:59:25.346Z,3.24
2022-08-09T14:02:01.019Z,3.04
2022-08-09T14:04:28.846Z,2.96
2022-08-09T14:06:55.402Z,2.96
2022-08-09T14:09:22.132Z,2.76
2022-08-09T14:11:48.755Z,2.73
2022-08-09T14:14:25.679Z,3.00
2022-08-09T14:16:54.016Z,2.90
2022-08-09T14:19:20.655Z,3.07
2022-08-09T14:21:48.936Z,3.09
2022-08-09T14:24:22.088Z,2.82
2022-08-09T14:26:58.433Z,2.81
2022-08-09T14:30:03.838Z,3.01
2022-08-09T14:32:13.075Z,2.91
2022-08-09T14:34:40.880Z,3.23
2022-08-09T14:37:08.121Z,3.22
2022-08-09T14:39:45.090Z,2.78
2022-08-09T14:42:12.732Z,2.84
2022-08-09T14:44:48.638Z,2.89
2022-08-09T14:47:39.777Z,3.04
2022-08-09T14:50:09.557Z,2.73
2022-08-09T14:52:37.469Z,2.77
2022-08-09T14:55:03.884Z,2.77
2022-08-09T14:57:31.745Z,2.88
2022-08-09T15:00:09.282Z,2.80
2022-08-09T15:02:36.478Z,2.72
2022-08-09T15:05:03.999Z,3.95
2022-08-09T15:07:35.202Z,3.70
2022-08-09T15:10:07.858Z,3.48
2022-08-09T15:12:37.812Z,3.27
2022-08-09T15:15:04.224Z,3.22
2022-08-09T15:17:41.904Z,3.46
2022-08-09T15:20:11.911Z,3.17
2022-08-09T15:22:46.456Z,3.16
2022-08-09T15:25:14.376Z,3.23
2022-08-09T15:27:54.913Z,3.14
2022-08-09T15:30:57.711Z,3.09
2022-08-09T15:33:15.177Z,3.16
2022-08-09T15:36:01.918Z,3.14
2022-08-09T15:38:32.111Z,3.29
2022-08-09T15:40:58.508Z,3.04
2022-08-09T15:43:24.990Z,2.97
2022-08-09T15:46:28.419Z,2.98
2022-08-09T15:48:58.917Z,3.18
2022-08-09T15:52:02.702Z,3.04
2022-08-09T15:54:31.595Z,3.16
2022-08-09T15:57:04.759Z,3.10
2022-08-09T15:59:37.214Z,3.26
2022-08-09T16:02:03.851Z,2.98
2022-08-09T16:04:32.050Z,2.95
2022-08-09T16:07:01.890Z,2.73
2022-08-09T16:09:51.192Z,2.86
2022-08-09T16:12:15.655Z,2.92
2022-08-09T16:14:42.260Z,2.98
2022-08-09T16:17:09.173Z,3.05
2022-08-09T16:19:36.441Z,2.84
2022-08-09T16:22:03.414Z,2.77
2022-08-09T16:24:33.487Z,2.96
2022-08-09T16:27:00.650Z,2.93
2022-08-09T16:29:37.763Z,2.97
2022-08-09T16:32:33.077Z,2.99
2022-08-09T16:34:59.888Z,2.94
2022-08-09T16:37:53.045Z,3.00
2022-08-09T16:40:20.559Z,3.18
2022-08-09T16:43:02.404Z,3.05
2022-08-09T16:45:28.863Z,3.06
2022-08-09T16:48:43.171Z,2.97
2022-08-09T16:50:58.903Z,3.02
2022-08-09T16:53:32.440Z,3.15
2022-08-09T16:56:04.838Z,3.33
2022-08-09T16:58:35.873Z,3.31
2022-08-09T17:01:03.314Z,3.34
2022-08-09T17:03:30.377Z,3.16
2022-08-09T17:06:08.997Z,3.00
2022-08-09T17:08:59.995Z,3.18
2022-08-09T17:11:40.854Z,3.41
2022-08-09T17:14:08.461Z,3.13
2022-08-09T17:16:53.148Z,3.24
2022-08-09T17:19:20.841Z,3.27
2022-08-09T17:21:47.495Z,3.22
2022-08-09T17:24:27.343Z,3.21
2022-08-09T17:26:56.358Z,3.29
2022-08-09T17:29:24.649Z,3.16
2022-08-09T17:31:57.890Z,3.60
2022-08-09T17:35:04.430Z,3.29
2022-08-09T17:37:19.635Z,3.37
2022-08-09T17:39:53.175Z,39.71
2022-08-09T17:42:41.803Z,54.19
2022-08-09T17:45:15.919Z,90.69
2022-08-09T17:47:55.477Z,164.81
2022-08-09T17:50:36.059Z,128.84
2022-08-09T17:53:04.676Z,196.56
2022-08-09T17:55:48.652Z,190.20
2022-08-09T17:58:16.787Z,203.54
2022-08-09T18:00:46.637Z,361.58
2022-08-09T18:03:14.847Z,333.15
2022-08-09T18:05:44.250Z,386.98
2022-08-09T18:08:11.192Z,425.15
2022-08-09T18:10:39.744Z,374.81
2022-08-09T18:13:53.706Z,399.93
2022-08-09T18:16:08.141Z,360.26
2022-08-09T18:18:35.705Z,370.69
2022-08-09T18:21:22.905Z,363.56
2022-08-09T18:24:11.013Z,358.96
2022-08-09T18:26:37.855Z,349.63
2022-08-09T18:30:41.056Z,354.60
2022-08-09T18:31:55.746Z,308.88
2022-08-09T18:34:24.246Z,310.56
2022-08-09T18:36:53.288Z,294.64
2022-08-09T18:39:20.121Z,270.27
2022-08-09T18:41:52.524Z,239.48
2022-08-09T18:44:20.198Z,232.69
2022-08-09T18:47:04.237Z,223.78
2022-08-09T18:49:41.586Z,203.66
2022-08-09T18:52:11.769Z,188.38
2022-08-09T18:54:38.462Z,176.86
2022-08-09T18:57:06.653Z,165.47
2022-08-09T18:59:37.564Z,157.82
2022-08-09T19:02:15.163Z,135.19
2022-08-09T19:04:41.666Z,128.15
2022-08-09T19:07:14.101Z,126.13
2022-08-09T19:10:13.708Z,117.64
2022-08-09T19:12:29.359Z,114.13
2022-08-09T19:14:55.863Z,104.92
2022-08-09T19:17:22.937Z,102.32
2022-08-09T19:19:49.356Z,101.88
2022-08-09T19:22:25.148Z,103.73
2022-08-09T19:25:09.621Z,97.77
2022-08-09T19:27:39.532Z,92.46
2022-08-09T19:30:22.961Z,86.79
2022-08-09T19:32:53.521Z,79.70
2022-08-09T19:35:21.503Z,76.74
2022-08-09T19:37:56.454Z,68.64
2022-08-09T19:40:24.284Z,63.38
2022-08-09T19:43:01.183Z,59.24
2022-08-09T19:45:38.878Z,57.23
2022-08-09T19:48:06.889Z,52.88
2022-08-09T19:50:49.639Z,48.26
2022-08-09T19:53:18.061Z,47.63
2022-08-09T19:56:01.984Z,44.63
2022-08-09T19:58:30.023Z,41.82
2022-08-09T20:00:56.820Z,39.33
2022-08-09T20:04:13.911Z,37.70
2022-08-09T20:06:23.617Z,33.72
2022-08-09T20:08:57.197Z,32.69
2022-08-09T20:11:26.050Z,30.93
2022-08-09T20:13:53.925Z,29.24
2022-08-09T20:16:38.057Z,27.56
2022-08-09T20:19:48.868Z,25.75
2022-08-09T20:21:56.258Z,24.87
2022-08-09T20:24:29.838Z,22.48
2022-08-09T20:27:00.475Z,20.20
2022-08-09T20:29:31.099Z,19.19
2022-08-09T20:32:31.340Z,17.89
2022-08-09T20:34:49.962Z,16.72
2022-08-09T20:37:21.358Z,15.71
2022-08-09T20:40:15.255Z,15.06
2022-08-09T20:42:35.666Z,14.04
2022-08-09T20:46:00.901Z,12.96
2022-08-09T20:47:50.934Z,11.62
2022-08-09T20:50:47.567Z,10.57
2022-08-09T20:53:03.741Z,9.59
2022-08-09T20:55:30.162Z,10.55
2022-08-09T20:58:20.623Z,9.65
2022-08-09T21:00:49.529Z,9.01
2022-08-09T21:03:28.685Z,8.55
2022-08-09T21:06:05.927Z,8.72
2022-08-09T21:08:36.265Z,8.39
2022-08-09T21:11:02.875Z,7.78
2022-08-09T21:13:59.063Z,7.48
2022-08-09T21:16:19.782Z,7.21
2022-08-09T21:19:16.932Z,7.20
2022-08-09T21:21:52.868Z,6.63
2022-08-09T21:24:19.335Z,6.42
2022-08-09T21:26:55.090Z,5.98
2022-08-09T21:29:22.720Z,5.84
2022-08-09T21:31:49.820Z,5.87
2022-08-09T21:34:21.068Z,5.60
2022-08-09T21:36:56.533Z,5.37
2022-08-09T21:39:28.183Z,5.31
2022-08-09T21:42:10.720Z,4.77
2022-08-09T21:44:37.925Z,5.00
2022-08-09T21:47:04.520Z,4.66
2022-08-09T21:49:40.475Z,4.50
2022-08-09T21:52:14.650Z,4.36
2022-08-09T21:54:46.315Z,4.43
2022-08-09T21:57:37.084Z,4.13
2022-08-09T22:00:02.588Z,4.30
2022-08-09T22:02:29.729Z,4.01
2022-08-09T22:05:17.143Z,4.07
2022-08-09T22:07:51.916Z,4.13
2022-08-09T22:10:23.182Z,4.09
2022-08-09T22:12:50.517Z,3.91
2022-08-09T22:15:18.430Z,3.69
2022-08-09T22:17:47.208Z,3.68
2022-08-09T22:20:16.834Z,3.49
2022-08-09T22:22:48.490Z,3.71
2022-08-09T22:26:06.159Z,3.62
2022-08-09T22:28:01.518Z,3.68
2022-08-09T22:30:33.785Z,3.63
2022-08-09T22:33:00.209Z,3.27
2022-08-09T22:36:01.271Z,3.44
2022-08-09T22:38:14.705Z,3.42
2022-08-09T22:40:49.191Z,3.36
2022-08-09T22:44:00.628Z,3.38
2022-08-09T22:48:11.988Z,3.28
2022-08-09T22:48:59.904Z,3.35
2022-08-09T22:51:28.375Z,3.40
2022-08-09T22:54:02.259Z,3.14
2022-08-09T22:56:34.134Z,3.21
2022-08-09T22:59:00.960Z,3.17
2022-08-09T23:01:32.656Z,3.33
2022-08-09T23:04:06.099Z,3.28
2022-08-09T23:06:36.060Z,3.31
2022-08-09T23:09:02.692Z,3.32
2022-08-09T23:11:29.110Z,3.41
2022-08-09T23:13:55.512Z,3.42
2022-08-09T23:16:21.919Z,3.42
2022-08-09T23:18:48.321Z,3.25
2022-08-09T23:21:14.734Z,3.16
2022-08-09T23:24:05.601Z,3.15
2022-08-09T23:26:33.106Z,3.09
2022-08-09T23:28:59.520Z,3.12
2022-08-09T23:31:25.925Z,3.14
2022-08-09T23:33:52.429Z,3.43
2022-08-09T23:36:18.842Z,3.30
2022-08-09T23:38:48.906Z,3.19
2022-08-09T23:41:28.659Z,3.28
2022-08-09T23:43:55.830Z,3.12
2022-08-09T23:46:22.341Z,3.09
2022-08-09T23:48:48.744Z,2.96
2022-08-09T23:51:15.140Z,2.92
2022-08-09T23:53:41.559Z,2.98
2022-08-09T23:56:07.977Z,2.93
2022-08-09T23:58:35.428Z,3.10
